sensor_id;sensor_type;location;lat;lon;timestamp;P1;durP1;ratioP1;P2;durP2;ratioP2
15567;SDS011;7885;42.596;23.044;2024-03-29T00:01:09;2.37;;;0.90;;
15567;SDS011;7885;42.596;23.044;2024-03-29T00:03:35;1.97;;;0.80;;
15567;SDS011;7885;42.596;23.044;2024-03-29T00:06:00;0.80;;;0.60;;
15567;SDS011;7885;42.596;23.044;2024-03-29T00:08:26;2.27;;;0.80;;
15567;SDS011;7885;42.596;23.044;2024-03-29T00:10:53;1.67;;;0.73;;
15567;SDS011;7885;42.596;23.044;2024-03-29T00:13:19;1.40;;;0.70;;
15567;SDS011;7885;42.596;23.044;2024-03-29T00:15:45;7.73;;;3.33;;
15567;SDS011;7885;42.596;23.044;2024-03-29T00:18:11;17.60;;;5.67;;
15567;SDS011;7885;42.596;23.044;2024-03-29T00:20:36;22.70;;;6.50;;
15567;SDS011;7885;42.596;23.044;2024-03-29T00:23:02;21.80;;;6.90;;
15567;SDS011;7885;42.596;23.044;2024-03-29T00:25:28;22.27;;;6.70;;
15567;SDS011;7885;42.596;23.044;2024-03-29T00:27:55;28.10;;;9.37;;
15567;SDS011;7885;42.596;23.044;2024-03-29T00:30:21;35.03;;;10.63;;
15567;SDS011;7885;42.596;23.044;2024-03-29T00:32:46;29.07;;;9.17;;
15567;SDS011;7885;42.596;23.044;2024-03-29T00:35:12;38.53;;;10.00;;
15567;SDS011;7885;42.596;23.044;2024-03-29T00:37:38;26.70;;;11.07;;
15567;SDS011;7885;42.596;23.044;2024-03-29T00:40:04;26.40;;;7.73;;
15567;SDS011;7885;42.596;23.044;2024-03-29T00:42:30;36.70;;;9.30;;
15567;SDS011;7885;42.596;23.044;2024-03-29T00:44:57;28.77;;;12.47;;
15567;SDS011;7885;42.596;23.044;2024-03-29T00:47:23;34.07;;;14.50;;
15567;SDS011;7885;42.596;23.044;2024-03-29T00:49:49;25.63;;;11.50;;
15567;SDS011;7885;42.596;23.044;2024-03-29T00:52:15;24.90;;;11.03;;
15567;SDS011;7885;42.596;23.044;2024-03-29T00:54:40;21.97;;;9.70;;
15567;SDS011;7885;42.596;23.044;2024-03-29T00:57:06;19.20;;;9.33;;
15567;SDS011;7885;42.596;23.044;2024-03-29T00:59:32;24.97;;;9.93;;
15567;SDS011;7885;42.596;23.044;2024-03-29T01:01:59;22.20;;;8.00;;
15567;SDS011;7885;42.596;23.044;2024-03-29T01:04:24;20.43;;;7.97;;
15567;SDS011;7885;42.596;23.044;2024-03-29T01:06:50;23.93;;;7.83;;
15567;SDS011;7885;42.596;23.044;2024-03-29T01:09:16;23.90;;;9.10;;
15567;SDS011;7885;42.596;23.044;2024-03-29T01:11:42;21.73;;;8.07;;
15567;SDS011;7885;42.596;23.044;2024-03-29T01:14:07;28.33;;;10.23;;
15567;SDS011;7885;42.596;23.044;2024-03-29T01:16:33;23.70;;;10.63;;
15567;SDS011;7885;42.596;23.044;2024-03-29T01:19:00;28.87;;;12.87;;
15567;SDS011;7885;42.596;23.044;2024-03-29T01:21:26;21.80;;;10.10;;
15567;SDS011;7885;42.596;23.044;2024-03-29T01:23:52;26.83;;;10.13;;
15567;SDS011;7885;42.596;23.044;2024-03-29T01:26:18;22.07;;;8.80;;
15567;SDS011;7885;42.596;23.044;2024-03-29T01:28:44;18.73;;;10.30;;
15567;SDS011;7885;42.596;23.044;2024-03-29T01:31:10;22.77;;;8.90;;
15567;SDS011;7885;42.596;23.044;2024-03-29T01:33:36;18.17;;;8.53;;
15567;SDS011;7885;42.596;23.044;2024-03-29T01:36:03;20.50;;;8.70;;
15567;SDS011;7885;42.596;23.044;2024-03-29T01:38:30;23.33;;;8.77;;
15567;SDS011;7885;42.596;23.044;2024-03-29T01:40:56;17.63;;;6.43;;
15567;SDS011;7885;42.596;23.044;2024-03-29T01:43:21;13.77;;;5.47;;
15567;SDS011;7885;42.596;23.044;2024-03-29T01:45:48;12.27;;;4.17;;
15567;SDS011;7885;42.596;23.044;2024-03-29T01:48:20;11.47;;;3.33;;
15567;SDS011;7885;42.596;23.044;2024-03-29T01:50:47;8.00;;;2.60;;
15567;SDS011;7885;42.596;23.044;2024-03-29T01:53:16;9.27;;;2.60;;
15567;SDS011;7885;42.596;23.044;2024-03-29T01:55:45;15.03;;;3.47;;
15567;SDS011;7885;42.596;23.044;2024-03-29T01:58:12;9.47;;;3.63;;
15567;SDS011;7885;42.596;23.044;2024-03-29T02:00:41;15.00;;;4.73;;
15567;SDS011;7885;42.596;23.044;2024-03-29T02:03:15;9.80;;;4.40;;
15567;SDS011;7885;42.596;23.044;2024-03-29T02:05:42;12.77;;;4.73;;
15567;SDS011;7885;42.596;23.044;2024-03-29T02:08:10;14.63;;;5.97;;
15567;SDS011;7885;42.596;23.044;2024-03-29T02:10:38;10.07;;;4.50;;
15567;SDS011;7885;42.596;23.044;2024-03-29T02:13:05;11.83;;;4.60;;
15567;SDS011;7885;42.596;23.044;2024-03-29T02:15:32;10.57;;;4.43;;
15567;SDS011;7885;42.596;23.044;2024-03-29T02:17:58;10.80;;;3.30;;
15567;SDS011;7885;42.596;23.044;2024-03-29T02:20:24;12.67;;;3.80;;
15567;SDS011;7885;42.596;23.044;2024-03-29T02:22:53;12.57;;;5.10;;
15567;SDS011;7885;42.596;23.044;2024-03-29T02:25:22;19.43;;;7.57;;
15567;SDS011;7885;42.596;23.044;2024-03-29T02:27:49;13.13;;;7.17;;
15567;SDS011;7885;42.596;23.044;2024-03-29T02:30:16;17.10;;;8.43;;
15567;SDS011;7885;42.596;23.044;2024-03-29T02:32:43;17.90;;;7.83;;
15567;SDS011;7885;42.596;23.044;2024-03-29T02:35:10;18.60;;;8.53;;
15567;SDS011;7885;42.596;23.044;2024-03-29T02:37:37;22.10;;;9.83;;
15567;SDS011;7885;42.596;23.044;2024-03-29T02:40:04;18.47;;;9.30;;
15567;SDS011;7885;42.596;23.044;2024-03-29T02:42:35;22.60;;;11.70;;
15567;SDS011;7885;42.596;23.044;2024-03-29T02:45:02;19.27;;;8.70;;
15567;SDS011;7885;42.596;23.044;2024-03-29T02:47:29;17.77;;;8.93;;
15567;SDS011;7885;42.596;23.044;2024-03-29T02:49:55;15.07;;;7.60;;
15567;SDS011;7885;42.596;23.044;2024-03-29T02:52:21;19.40;;;8.50;;
15567;SDS011;7885;42.596;23.044;2024-03-29T02:54:47;12.17;;;5.70;;
15567;SDS011;7885;42.596;23.044;2024-03-29T02:57:15;9.07;;;5.27;;
15567;SDS011;7885;42.596;23.044;2024-03-29T02:59:42;6.83;;;3.73;;
15567;SDS011;7885;42.596;23.044;2024-03-29T03:02:09;12.37;;;4.97;;
15567;SDS011;7885;42.596;23.044;2024-03-29T03:04:34;11.97;;;5.53;;
15567;SDS011;7885;42.596;23.044;2024-03-29T03:07:01;12.83;;;6.30;;
15567;SDS011;7885;42.596;23.044;2024-03-29T03:09:42;12.80;;;6.40;;
15567;SDS011;7885;42.596;23.044;2024-03-29T03:12:25;25.33;;;12.83;;
15567;SDS011;7885;42.596;23.044;2024-03-29T03:14:53;14.83;;;8.23;;
15567;SDS011;7885;42.596;23.044;2024-03-29T03:17:20;13.87;;;7.90;;
15567;SDS011;7885;42.596;23.044;2024-03-29T03:19:47;15.63;;;7.10;;
15567;SDS011;7885;42.596;23.044;2024-03-29T03:22:13;10.60;;;5.57;;
15567;SDS011;7885;42.596;23.044;2024-03-29T03:24:40;13.30;;;5.57;;
15567;SDS011;7885;42.596;23.044;2024-03-29T03:27:06;11.87;;;6.03;;
15567;SDS011;7885;42.596;23.044;2024-03-29T03:29:32;12.33;;;5.43;;
15567;SDS011;7885;42.596;23.044;2024-03-29T03:31:59;15.70;;;6.70;;
15567;SDS011;7885;42.596;23.044;2024-03-29T03:34:26;8.70;;;4.20;;
15567;SDS011;7885;42.596;23.044;2024-03-29T03:36:52;12.93;;;6.50;;
15567;SDS011;7885;42.596;23.044;2024-03-29T03:39:19;21.97;;;12.10;;
15567;SDS011;7885;42.596;23.044;2024-03-29T03:41:44;28.60;;;14.43;;
15567;SDS011;7885;42.596;23.044;2024-03-29T03:44:12;29.03;;;14.17;;
15567;SDS011;7885;42.596;23.044;2024-03-29T03:46:37;22.43;;;11.27;;
15567;SDS011;7885;42.596;23.044;2024-03-29T03:49:05;24.43;;;13.67;;
15567;SDS011;7885;42.596;23.044;2024-03-29T03:51:31;21.60;;;11.07;;
15567;SDS011;7885;42.596;23.044;2024-03-29T03:53:58;11.90;;;7.93;;
15567;SDS011;7885;42.596;23.044;2024-03-29T03:56:23;11.50;;;6.63;;
15567;SDS011;7885;42.596;23.044;2024-03-29T03:58:50;15.07;;;8.10;;
15567;SDS011;7885;42.596;23.044;2024-03-29T04:01:17;13.17;;;8.37;;
15567;SDS011;7885;42.596;23.044;2024-03-29T04:03:43;11.70;;;6.47;;
15567;SDS011;7885;42.596;23.044;2024-03-29T04:06:11;15.37;;;8.67;;
15567;SDS011;7885;42.596;23.044;2024-03-29T04:08:36;19.13;;;10.70;;
15567;SDS011;7885;42.596;23.044;2024-03-29T04:11:03;25.30;;;9.80;;
15567;SDS011;7885;42.596;23.044;2024-03-29T04:13:29;14.37;;;7.80;;
15567;SDS011;7885;42.596;23.044;2024-03-29T04:16:00;8.73;;;4.90;;
15567;SDS011;7885;42.596;23.044;2024-03-29T04:18:26;6.93;;;3.17;;
15567;SDS011;7885;42.596;23.044;2024-03-29T04:20:55;3.90;;;2.37;;
15567;SDS011;7885;42.596;23.044;2024-03-29T04:23:23;2.90;;;1.90;;
15567;SDS011;7885;42.596;23.044;2024-03-29T04:25:51;5.03;;;1.90;;
15567;SDS011;7885;42.596;23.044;2024-03-29T04:28:17;4.23;;;2.50;;
15567;SDS011;7885;42.596;23.044;2024-03-29T04:30:50;11.67;;;3.77;;
15567;SDS011;7885;42.596;23.044;2024-03-29T04:33:16;6.73;;;3.63;;
15567;SDS011;7885;42.596;23.044;2024-03-29T04:35:51;8.87;;;5.07;;
15567;SDS011;7885;42.596;23.044;2024-03-29T04:38:19;17.17;;;7.53;;
15567;SDS011;7885;42.596;23.044;2024-03-29T04:40:48;14.57;;;7.83;;
15567;SDS011;7885;42.596;23.044;2024-03-29T04:43:15;16.00;;;8.23;;
15567;SDS011;7885;42.596;23.044;2024-03-29T04:52:40;16.13;;;8.10;;
15567;SDS011;7885;42.596;23.044;2024-03-29T04:55:07;15.77;;;8.37;;
15567;SDS011;7885;42.596;23.044;2024-03-29T04:57:35;16.77;;;8.43;;
15567;SDS011;7885;42.596;23.044;2024-03-29T05:00:02;16.33;;;9.67;;
15567;SDS011;7885;42.596;23.044;2024-03-29T05:02:29;17.10;;;10.63;;
15567;SDS011;7885;42.596;23.044;2024-03-29T05:04:56;19.00;;;9.27;;
15567;SDS011;7885;42.596;23.044;2024-03-29T05:07:23;21.70;;;9.20;;
15567;SDS011;7885;42.596;23.044;2024-03-29T05:09:50;21.70;;;8.47;;
15567;SDS011;7885;42.596;23.044;2024-03-29T05:12:16;23.50;;;7.47;;
15567;SDS011;7885;42.596;23.044;2024-03-29T05:14:44;27.03;;;8.47;;
15567;SDS011;7885;42.596;23.044;2024-03-29T05:17:11;17.93;;;7.60;;
15567;SDS011;7885;42.596;23.044;2024-03-29T05:19:38;19.90;;;7.60;;
15567;SDS011;7885;42.596;23.044;2024-03-29T05:22:05;18.67;;;6.63;;
15567;SDS011;7885;42.596;23.044;2024-03-29T05:24:31;16.87;;;6.70;;
15567;SDS011;7885;42.596;23.044;2024-03-29T05:26:58;21.20;;;8.10;;
15567;SDS011;7885;42.596;23.044;2024-03-29T05:29:25;25.33;;;8.43;;
15567;SDS011;7885;42.596;23.044;2024-03-29T05:31:53;19.60;;;8.47;;
15567;SDS011;7885;42.596;23.044;2024-03-29T05:34:19;27.57;;;9.47;;
15567;SDS011;7885;42.596;23.044;2024-03-29T05:36:46;25.23;;;9.73;;
15567;SDS011;7885;42.596;23.044;2024-03-29T05:39:13;32.97;;;11.27;;
15567;SDS011;7885;42.596;23.044;2024-03-29T05:41:40;18.83;;;8.97;;
15567;SDS011;7885;42.596;23.044;2024-03-29T05:44:07;23.23;;;9.10;;
15567;SDS011;7885;42.596;23.044;2024-03-29T05:46:34;22.93;;;8.60;;
15567;SDS011;7885;42.596;23.044;2024-03-29T05:49:02;18.87;;;8.57;;
15567;SDS011;7885;42.596;23.044;2024-03-29T05:51:28;15.20;;;8.13;;
15567;SDS011;7885;42.596;23.044;2024-03-29T05:53:55;17.33;;;7.20;;
15567;SDS011;7885;42.596;23.044;2024-03-29T05:56:22;13.17;;;6.37;;
15567;SDS011;7885;42.596;23.044;2024-03-29T05:58:49;19.20;;;6.80;;
15567;SDS011;7885;42.596;23.044;2024-03-29T06:01:15;17.30;;;7.77;;
15567;SDS011;7885;42.596;23.044;2024-03-29T06:03:42;20.77;;;9.23;;
15567;SDS011;7885;42.596;23.044;2024-03-29T06:06:10;15.90;;;7.63;;
15567;SDS011;7885;42.596;23.044;2024-03-29T06:08:43;21.93;;;10.17;;
15567;SDS011;7885;42.596;23.044;2024-03-29T06:11:09;17.47;;;8.93;;
15567;SDS011;7885;42.596;23.044;2024-03-29T06:13:36;22.13;;;8.83;;
15567;SDS011;7885;42.596;23.044;2024-03-29T06:16:20;16.97;;;8.23;;
15567;SDS011;7885;42.596;23.044;2024-03-29T06:19:05;13.97;;;7.07;;
15567;SDS011;7885;42.596;23.044;2024-03-29T06:21:33;16.17;;;8.10;;
15567;SDS011;7885;42.596;23.044;2024-03-29T06:24:04;16.47;;;6.70;;
15567;SDS011;7885;42.596;23.044;2024-03-29T06:26:31;16.47;;;5.30;;
15567;SDS011;7885;42.596;23.044;2024-03-29T06:28:57;13.53;;;5.70;;
15567;SDS011;7885;42.596;23.044;2024-03-29T06:31:24;14.20;;;5.90;;
15567;SDS011;7885;42.596;23.044;2024-03-29T06:33:51;14.60;;;5.73;;
15567;SDS011;7885;42.596;23.044;2024-03-29T06:36:18;9.00;;;5.43;;
15567;SDS011;7885;42.596;23.044;2024-03-29T06:38:46;12.30;;;5.70;;
15567;SDS011;7885;42.596;23.044;2024-03-29T06:41:13;26.80;;;10.73;;
15567;SDS011;7885;42.596;23.044;2024-03-29T06:43:41;32.43;;;17.03;;
15567;SDS011;7885;42.596;23.044;2024-03-29T06:46:09;28.33;;;12.03;;
15567;SDS011;7885;42.596;23.044;2024-03-29T06:48:36;23.13;;;12.10;;
15567;SDS011;7885;42.596;23.044;2024-03-29T06:51:03;20.03;;;9.03;;
15567;SDS011;7885;42.596;23.044;2024-03-29T06:53:30;18.77;;;8.67;;
15567;SDS011;7885;42.596;23.044;2024-03-29T06:55:59;20.60;;;9.67;;
15567;SDS011;7885;42.596;23.044;2024-03-29T06:58:26;24.20;;;9.97;;
15567;SDS011;7885;42.596;23.044;2024-03-29T07:00:53;27.33;;;11.00;;
15567;SDS011;7885;42.596;23.044;2024-03-29T07:03:20;19.03;;;9.60;;
15567;SDS011;7885;42.596;23.044;2024-03-29T07:05:46;22.37;;;10.17;;
15567;SDS011;7885;42.596;23.044;2024-03-29T07:08:13;17.40;;;8.60;;
15567;SDS011;7885;42.596;23.044;2024-03-29T07:10:40;17.13;;;7.83;;
15567;SDS011;7885;42.596;23.044;2024-03-29T07:13:08;15.13;;;7.70;;
15567;SDS011;7885;42.596;23.044;2024-03-29T07:15:35;12.90;;;7.00;;
15567;SDS011;7885;42.596;23.044;2024-03-29T07:18:02;12.10;;;6.30;;
15567;SDS011;7885;42.596;23.044;2024-03-29T07:20:29;11.87;;;5.23;;
15567;SDS011;7885;42.596;23.044;2024-03-29T07:22:56;8.87;;;4.87;;
15567;SDS011;7885;42.596;23.044;2024-03-29T07:25:23;11.97;;;5.03;;
15567;SDS011;7885;42.596;23.044;2024-03-29T07:27:51;13.27;;;6.07;;
15567;SDS011;7885;42.596;23.044;2024-03-29T07:30:19;8.30;;;4.87;;
15567;SDS011;7885;42.596;23.044;2024-03-29T07:32:46;13.97;;;5.90;;
15567;SDS011;7885;42.596;23.044;2024-03-29T07:35:13;10.90;;;4.57;;
15567;SDS011;7885;42.596;23.044;2024-03-29T07:37:40;8.03;;;4.20;;
15567;SDS011;7885;42.596;23.044;2024-03-29T07:40:11;7.20;;;3.73;;
15567;SDS011;7885;42.596;23.044;2024-03-29T07:42:38;5.17;;;2.23;;
15567;SDS011;7885;42.596;23.044;2024-03-29T07:45:04;7.40;;;2.80;;
15567;SDS011;7885;42.596;23.044;2024-03-29T07:47:33;11.60;;;3.90;;
15567;SDS011;7885;42.596;23.044;2024-03-29T07:50:00;11.03;;;3.40;;
15567;SDS011;7885;42.596;23.044;2024-03-29T07:52:26;7.87;;;2.43;;
15567;SDS011;7885;42.596;23.044;2024-03-29T07:54:55;4.60;;;2.10;;
15567;SDS011;7885;42.596;23.044;2024-03-29T07:57:22;6.33;;;2.50;;
15567;SDS011;7885;42.596;23.044;2024-03-29T07:59:50;6.60;;;2.30;;
15567;SDS011;7885;42.596;23.044;2024-03-29T08:02:17;6.97;;;2.40;;
15567;SDS011;7885;42.596;23.044;2024-03-29T08:04:45;6.53;;;2.35;;
15567;SDS011;7885;42.596;23.044;2024-03-29T08:07:12;6.80;;;2.58;;
15567;SDS011;7885;42.596;23.044;2024-03-29T08:09:38;4.35;;;2.38;;
15567;SDS011;7885;42.596;23.044;2024-03-29T08:12:05;4.75;;;2.35;;
15567;SDS011;7885;42.596;23.044;2024-03-29T08:14:32;14.50;;;3.10;;
15567;SDS011;7885;42.596;23.044;2024-03-29T08:16:59;9.98;;;3.08;;
15567;SDS011;7885;42.596;23.044;2024-03-29T08:19:29;15.63;;;3.38;;
15567;SDS011;7885;42.596;23.044;2024-03-29T08:21:57;5.45;;;2.50;;
15567;SDS011;7885;42.596;23.044;2024-03-29T08:24:26;8.23;;;2.53;;
15567;SDS011;7885;42.596;23.044;2024-03-29T08:26:52;7.50;;;3.20;;
15567;SDS011;7885;42.596;23.044;2024-03-29T08:29:19;6.20;;;3.10;;
15567;SDS011;7885;42.596;23.044;2024-03-29T08:31:46;6.82;;;2.88;;
15567;SDS011;7885;42.596;23.044;2024-03-29T08:34:13;6.07;;;2.75;;
15567;SDS011;7885;42.596;23.044;2024-03-29T08:36:40;7.07;;;3.15;;
15567;SDS011;7885;42.596;23.044;2024-03-29T08:39:08;5.93;;;3.33;;
15567;SDS011;7885;42.596;23.044;2024-03-29T08:41:34;6.68;;;3.30;;
15567;SDS011;7885;42.596;23.044;2024-03-29T08:44:01;8.68;;;3.10;;
15567;SDS011;7885;42.596;23.044;2024-03-29T08:46:28;6.72;;;2.75;;
15567;SDS011;7885;42.596;23.044;2024-03-29T08:48:55;5.93;;;2.90;;
15567;SDS011;7885;42.596;23.044;2024-03-29T08:51:21;6.55;;;2.63;;
15567;SDS011;7885;42.596;23.044;2024-03-29T08:53:48;3.78;;;2.70;;
15567;SDS011;7885;42.596;23.044;2024-03-29T08:56:17;5.78;;;2.40;;
15567;SDS011;7885;42.596;23.044;2024-03-29T08:58:43;6.55;;;2.00;;
15567;SDS011;7885;42.596;23.044;2024-03-29T09:04:32;3.92;;;2.22;;
15567;SDS011;7885;42.596;23.044;2024-03-29T09:07:00;6.35;;;2.70;;
15567;SDS011;7885;42.596;23.044;2024-03-29T09:09:27;6.53;;;3.00;;
15567;SDS011;7885;42.596;23.044;2024-03-29T09:11:56;5.38;;;2.70;;
15567;SDS011;7885;42.596;23.044;2024-03-29T09:14:22;8.35;;;3.25;;
15567;SDS011;7885;42.596;23.044;2024-03-29T09:16:50;9.35;;;5.90;;
15567;SDS011;7885;42.596;23.044;2024-03-29T09:19:17;4.63;;;2.25;;
15567;SDS011;7885;42.596;23.044;2024-03-29T09:21:44;5.70;;;1.80;;
15567;SDS011;7885;42.596;23.044;2024-03-29T09:24:11;4.70;;;2.03;;
15567;SDS011;7885;42.596;23.044;2024-03-29T09:26:38;4.53;;;2.10;;
15567;SDS011;7885;42.596;23.044;2024-03-29T09:29:06;2.58;;;1.60;;
15567;SDS011;7885;42.596;23.044;2024-03-29T09:31:33;3.50;;;1.85;;
15567;SDS011;7885;42.596;23.044;2024-03-29T09:34:00;3.88;;;1.90;;
15567;SDS011;7885;42.596;23.044;2024-03-29T09:36:27;3.92;;;1.85;;
15567;SDS011;7885;42.596;23.044;2024-03-29T09:38:54;3.83;;;1.60;;
15567;SDS011;7885;42.596;23.044;2024-03-29T09:41:21;4.70;;;1.75;;
15567;SDS011;7885;42.596;23.044;2024-03-29T09:43:51;4.38;;;1.88;;
15567;SDS011;7885;42.596;23.044;2024-03-29T09:46:22;3.78;;;2.00;;
15567;SDS011;7885;42.596;23.044;2024-03-29T09:48:50;3.13;;;1.70;;
15567;SDS011;7885;42.596;23.044;2024-03-29T09:51:21;2.97;;;1.92;;
15567;SDS011;7885;42.596;23.044;2024-03-29T09:53:48;4.13;;;2.00;;
15567;SDS011;7885;42.596;23.044;2024-03-29T09:56:15;4.85;;;1.90;;
15567;SDS011;7885;42.596;23.044;2024-03-29T09:58:42;8.27;;;2.20;;
15567;SDS011;7885;42.596;23.044;2024-03-29T10:01:09;3.85;;;1.92;;
15567;SDS011;7885;42.596;23.044;2024-03-29T10:03:39;3.78;;;1.85;;
15567;SDS011;7885;42.596;23.044;2024-03-29T10:06:06;13.10;;;2.50;;
15567;SDS011;7885;42.596;23.044;2024-03-29T10:08:34;3.03;;;1.70;;
15567;SDS011;7885;42.596;23.044;2024-03-29T10:11:02;4.07;;;1.90;;
15567;SDS011;7885;42.596;23.044;2024-03-29T10:13:29;4.47;;;1.90;;
15567;SDS011;7885;42.596;23.044;2024-03-29T10:15:56;3.30;;;1.80;;
15567;SDS011;7885;42.596;23.044;2024-03-29T10:18:23;4.40;;;3.13;;
15567;SDS011;7885;42.596;23.044;2024-03-29T10:20:59;3.65;;;1.65;;
15567;SDS011;7885;42.596;23.044;2024-03-29T10:23:27;3.95;;;1.70;;
15567;SDS011;7885;42.596;23.044;2024-03-29T10:25:54;3.80;;;1.80;;
15567;SDS011;7885;42.596;23.044;2024-03-29T10:28:21;3.47;;;1.73;;
15567;SDS011;7885;42.596;23.044;2024-03-29T10:30:48;6.82;;;5.50;;
15567;SDS011;7885;42.596;23.044;2024-03-29T10:33:15;4.40;;;1.90;;
15567;SDS011;7885;42.596;23.044;2024-03-29T10:35:42;5.63;;;1.70;;
15567;SDS011;7885;42.596;23.044;2024-03-29T10:38:11;3.00;;;1.50;;
15567;SDS011;7885;42.596;23.044;2024-03-29T10:40:38;2.78;;;1.67;;
15567;SDS011;7885;42.596;23.044;2024-03-29T10:43:07;5.57;;;1.60;;
15567;SDS011;7885;42.596;23.044;2024-03-29T10:45:37;3.88;;;1.67;;
15567;SDS011;7885;42.596;23.044;2024-03-29T10:48:05;4.53;;;1.55;;
15567;SDS011;7885;42.596;23.044;2024-03-29T10:50:35;8.20;;;1.77;;
15567;SDS011;7885;42.596;23.044;2024-03-29T10:53:02;3.30;;;1.63;;
15567;SDS011;7885;42.596;23.044;2024-03-29T10:55:31;3.35;;;1.60;;
15567;SDS011;7885;42.596;23.044;2024-03-29T10:58:00;4.18;;;1.50;;
15567;SDS011;7885;42.596;23.044;2024-03-29T11:00:28;2.15;;;1.50;;
15567;SDS011;7885;42.596;23.044;2024-03-29T11:03:05;3.28;;;1.45;;
15567;SDS011;7885;42.596;23.044;2024-03-29T11:05:38;2.63;;;1.40;;
15567;SDS011;7885;42.596;23.044;2024-03-29T11:08:11;6.40;;;1.80;;
15567;SDS011;7885;42.596;23.044;2024-03-29T11:10:41;2.63;;;1.70;;
15567;SDS011;7885;42.596;23.044;2024-03-29T11:13:12;3.78;;;1.40;;
15567;SDS011;7885;42.596;23.044;2024-03-29T11:15:47;2.38;;;1.35;;
15567;SDS011;7885;42.596;23.044;2024-03-29T11:18:16;15.05;;;1.95;;
15567;SDS011;7885;42.596;23.044;2024-03-29T11:20:44;3.97;;;1.25;;
15567;SDS011;7885;42.596;23.044;2024-03-29T11:23:16;4.07;;;1.20;;
15567;SDS011;7885;42.596;23.044;2024-03-29T11:25:46;2.08;;;1.08;;
15567;SDS011;7885;42.596;23.044;2024-03-29T11:28:21;2.95;;;1.10;;
15567;SDS011;7885;42.596;23.044;2024-03-29T11:30:51;1.38;;;0.90;;
15567;SDS011;7885;42.596;23.044;2024-03-29T11:33:28;2.60;;;1.10;;
15567;SDS011;7885;42.596;23.044;2024-03-29T11:35:56;2.45;;;0.93;;
15567;SDS011;7885;42.596;23.044;2024-03-29T11:38:30;1.73;;;1.08;;
15567;SDS011;7885;42.596;23.044;2024-03-29T11:41:03;3.50;;;1.10;;
15567;SDS011;7885;42.596;23.044;2024-03-29T11:43:31;1.13;;;0.70;;
15567;SDS011;7885;42.596;23.044;2024-03-29T11:45:58;2.28;;;0.80;;
15567;SDS011;7885;42.596;23.044;2024-03-29T11:48:27;2.10;;;1.00;;
15567;SDS011;7885;42.596;23.044;2024-03-29T11:50:54;1.73;;;0.82;;
15567;SDS011;7885;42.596;23.044;2024-03-29T11:53:21;1.10;;;0.70;;
15567;SDS011;7885;42.596;23.044;2024-03-29T11:55:48;1.77;;;0.80;;
15567;SDS011;7885;42.596;23.044;2024-03-29T11:58:20;1.77;;;0.70;;
15567;SDS011;7885;42.596;23.044;2024-03-29T12:00:48;1.23;;;0.73;;
15567;SDS011;7885;42.596;23.044;2024-03-29T12:03:15;1.95;;;0.80;;
15567;SDS011;7885;42.596;23.044;2024-03-29T12:05:43;2.17;;;0.90;;
15567;SDS011;7885;42.596;23.044;2024-03-29T12:08:10;1.60;;;1.00;;
15567;SDS011;7885;42.596;23.044;2024-03-29T12:10:37;2.50;;;0.82;;
15567;SDS011;7885;42.596;23.044;2024-03-29T12:13:04;1.88;;;0.98;;
15567;SDS011;7885;42.596;23.044;2024-03-29T12:15:32;2.30;;;1.02;;
15567;SDS011;7885;42.596;23.044;2024-03-29T12:18:00;2.88;;;0.70;;
15567;SDS011;7885;42.596;23.044;2024-03-29T12:20:29;2.92;;;1.00;;
15567;SDS011;7885;42.596;23.044;2024-03-29T12:22:58;2.40;;;0.77;;
15567;SDS011;7885;42.596;23.044;2024-03-29T12:25:26;1.98;;;0.93;;
15567;SDS011;7885;42.596;23.044;2024-03-29T12:27:53;1.85;;;0.80;;
15567;SDS011;7885;42.596;23.044;2024-03-29T12:30:20;2.33;;;0.90;;
15567;SDS011;7885;42.596;23.044;2024-03-29T12:32:50;5.95;;;0.80;;
15567;SDS011;7885;42.596;23.044;2024-03-29T12:35:26;3.08;;;1.00;;
15567;SDS011;7885;42.596;23.044;2024-03-29T12:37:54;3.08;;;0.80;;
15567;SDS011;7885;42.596;23.044;2024-03-29T12:40:21;2.92;;;0.75;;
15567;SDS011;7885;42.596;23.044;2024-03-29T12:42:50;2.38;;;0.90;;
15567;SDS011;7885;42.596;23.044;2024-03-29T12:45:17;1.77;;;0.80;;
15567;SDS011;7885;42.596;23.044;2024-03-29T12:54:29;3.70;;;1.13;;
15567;SDS011;7885;42.596;23.044;2024-03-29T12:56:56;1.38;;;0.80;;
15567;SDS011;7885;42.596;23.044;2024-03-29T12:59:28;2.80;;;0.90;;
15567;SDS011;7885;42.596;23.044;2024-03-29T13:01:54;2.83;;;0.90;;
15567;SDS011;7885;42.596;23.044;2024-03-29T13:04:21;3.15;;;0.90;;
15567;SDS011;7885;42.596;23.044;2024-03-29T13:06:48;3.38;;;0.80;;
15567;SDS011;7885;42.596;23.044;2024-03-29T13:09:15;1.90;;;1.00;;
15567;SDS011;7885;42.596;23.044;2024-03-29T13:11:43;14.10;;;1.50;;
15567;SDS011;7885;42.596;23.044;2024-03-29T13:14:10;4.20;;;1.20;;
15567;SDS011;7885;42.596;23.044;2024-03-29T13:19:58;2.35;;;0.90;;
15567;SDS011;7885;42.596;23.044;2024-03-29T13:22:25;2.75;;;1.00;;
15567;SDS011;7885;42.596;23.044;2024-03-29T13:24:52;1.95;;;0.98;;
15567;SDS011;7885;42.596;23.044;2024-03-29T13:27:20;2.42;;;1.08;;
15567;SDS011;7885;42.596;23.044;2024-03-29T13:29:47;1.75;;;0.90;;
15567;SDS011;7885;42.596;23.044;2024-03-29T13:32:14;1.83;;;0.90;;
15567;SDS011;7885;42.596;23.044;2024-03-29T13:34:41;3.47;;;0.95;;
15567;SDS011;7885;42.596;23.044;2024-03-29T13:37:07;1.55;;;0.90;;
15567;SDS011;7885;42.596;23.044;2024-03-29T13:39:34;6.15;;;1.08;;
15567;SDS011;7885;42.596;23.044;2024-03-29T13:42:01;2.55;;;1.00;;
15567;SDS011;7885;42.596;23.044;2024-03-29T13:44:29;2.78;;;1.10;;
15567;SDS011;7885;42.596;23.044;2024-03-29T13:46:57;4.05;;;1.35;;
15567;SDS011;7885;42.596;23.044;2024-03-29T13:49:24;1.88;;;0.95;;
15567;SDS011;7885;42.596;23.044;2024-03-29T13:51:57;2.08;;;0.90;;
15567;SDS011;7885;42.596;23.044;2024-03-29T13:54:24;2.00;;;0.80;;
15567;SDS011;7885;42.596;23.044;2024-03-29T13:56:50;1.65;;;0.90;;
15567;SDS011;7885;42.596;23.044;2024-03-29T13:59:17;1.67;;;0.90;;
15567;SDS011;7885;42.596;23.044;2024-03-29T14:01:45;1.63;;;1.00;;
15567;SDS011;7885;42.596;23.044;2024-03-29T14:04:12;2.88;;;1.00;;
15567;SDS011;7885;42.596;23.044;2024-03-29T14:06:39;2.53;;;0.80;;
15567;SDS011;7885;42.596;23.044;2024-03-29T14:09:06;2.00;;;0.80;;
15567;SDS011;7885;42.596;23.044;2024-03-29T14:11:32;1.83;;;0.90;;
15567;SDS011;7885;42.596;23.044;2024-03-29T14:13:59;46.40;;;3.72;;
15567;SDS011;7885;42.596;23.044;2024-03-29T14:16:26;1.88;;;0.85;;
15567;SDS011;7885;42.596;23.044;2024-03-29T14:18:54;2.80;;;0.95;;
15567;SDS011;7885;42.596;23.044;2024-03-29T14:21:21;2.15;;;0.82;;
15567;SDS011;7885;42.596;23.044;2024-03-29T14:23:48;0.93;;;0.70;;
15567;SDS011;7885;42.596;23.044;2024-03-29T14:26:14;1.77;;;0.60;;
15567;SDS011;7885;42.596;23.044;2024-03-29T14:28:41;2.57;;;0.90;;
15567;SDS011;7885;42.596;23.044;2024-03-29T14:31:08;1.60;;;0.80;;
15567;SDS011;7885;42.596;23.044;2024-03-29T14:33:35;2.10;;;0.90;;
15567;SDS011;7885;42.596;23.044;2024-03-29T14:36:04;3.20;;;0.85;;
15567;SDS011;7885;42.596;23.044;2024-03-29T14:41:52;1.40;;;0.88;;
15567;SDS011;7885;42.596;23.044;2024-03-29T14:44:19;1.80;;;0.98;;
15567;SDS011;7885;42.596;23.044;2024-03-29T14:46:47;2.17;;;0.90;;
15567;SDS011;7885;42.596;23.044;2024-03-29T14:49:14;1.92;;;0.98;;
15567;SDS011;7885;42.596;23.044;2024-03-29T14:51:43;2.88;;;0.80;;
15567;SDS011;7885;42.596;23.044;2024-03-29T14:54:10;2.30;;;0.88;;
15567;SDS011;7885;42.596;23.044;2024-03-29T14:56:37;2.13;;;0.88;;
15567;SDS011;7885;42.596;23.044;2024-03-29T15:02:26;2.42;;;0.70;;
15567;SDS011;7885;42.596;23.044;2024-03-29T15:04:52;1.55;;;0.80;;
15567;SDS011;7885;42.596;23.044;2024-03-29T15:07:21;2.78;;;0.85;;
15567;SDS011;7885;42.596;23.044;2024-03-29T15:09:49;3.08;;;0.90;;